Fecha, hora, temperatura, viento dirección y velocidad, humedad y presión.

  • 16-01-2019 16:00:00 | 12.60°C | Oeste |11.00 km/h | 63.00% | 0.00 hPa
  • 16-01-2019 15:00:00 | 13.30°C | Sur |6.00 km/h | 60.00% | 0.00 hPa
  • 16-01-2019 14:00:00 | 11.10°C | Oeste |13.00 km/h | 77.00% | 0.00 hPa
  • 16-01-2019 13:00:00 | 11.40°C | Oeste |13.00 km/h | 75.00% | 0.00 hPa
  • 16-01-2019 12:00:00 | 11.60°C | Oeste |12.00 km/h | 74.00% | 0.00 hPa
  • 16-01-2019 11:00:00 | 10.80°C | Sudoeste |11.00 km/h | 65.00% | 0.00 hPa
  • 16-01-2019 10:00:00 | 10.00°C | Oeste |8.00 km/h | 66.00% | 0.00 hPa
  • 16-01-2019 09:00:00 | 8.90°C | Este |4.00 km/h | 68.00% | 0.00 hPa
  • 16-01-2019 08:00:00 | 9.00°C | Sudoeste |7.00 km/h | 68.00% | 0.00 hPa
  • 16-01-2019 07:00:00 | 9.50°C | Nordeste |3.00 km/h | 69.00% | 0.00 hPa
  • 16-01-2019 06:00:00 | 9.30°C | Sudeste |3.00 km/h | 73.00% | 0.00 hPa
  • 16-01-2019 05:00:00 | 7.80°C | Este |5.00 km/h | 87.00% | 0.00 hPa
  • 16-01-2019 04:00:00 | 7.50°C | Este |4.00 km/h | 88.00% | 0.00 hPa
  • 16-01-2019 03:00:00 | 7.90°C | Oeste |4.00 km/h | 86.00% | 0.00 hPa
  • 16-01-2019 02:00:00 | 7.80°C | Sudoeste |5.00 km/h | 89.00% | 0.00 hPa
  • 16-01-2019 01:00:00 | 7.70°C | Sudeste |7.00 km/h | 86.00% | 0.00 hPa
  • 16-01-2019 00:00:00 | 8.20°C | Sudeste |9.00 km/h | 86.00% | 0.00 hPa
  • 15-01-2019 23:00:00 | 8.50°C | Sudeste |10.00 km/h | 86.00% | 0.00 hPa
  • 15-01-2019 22:00:00 | 8.60°C | Sudeste |12.00 km/h | 86.00% | 0.00 hPa
  • 15-01-2019 21:00:00 | 8.60°C | Sudeste |12.00 km/h | 85.00% | 0.00 hPa
  • 15-01-2019 20:00:00 | 8.60°C | Sudeste |13.00 km/h | 83.00% | 0.00 hPa
  • 15-01-2019 19:00:00 | 8.20°C | Sudeste |14.00 km/h | 83.00% | 0.00 hPa
  • 15-01-2019 18:00:00 | 8.60°C | Este |19.00 km/h | 84.00% | 0.00 hPa
  • 15-01-2019 17:00:00 | 8.70°C | Este |21.00 km/h | 82.00% | 0.00 hPa
    • diseño web asturias Información sobre el estado de las mareas, altura de la marejada, temperatura del agua y otros datos de Gijón en Asturias.

      Surf Gijón